sensor_id;sensor_type;location;lat;lon;timestamp;temperature;humidity
71128;SHT30;59249;59.736;30.568;2022-09-12T00:02:02;7.61;84.80
71128;SHT30;59249;59.736;30.568;2022-09-12T00:04:31;7.64;84.80
71128;SHT30;59249;59.736;30.568;2022-09-12T00:07:00;7.64;84.77
71128;SHT30;59249;59.736;30.568;2022-09-12T00:09:30;7.55;84.54
71128;SHT30;59249;59.736;30.568;2022-09-12T00:11:59;7.56;84.91
71128;SHT30;59249;59.736;30.568;2022-09-12T00:14:28;7.44;85.15
71128;SHT30;59249;59.736;30.568;2022-09-12T00:16:57;7.46;85.76
71128;SHT30;59249;59.736;30.568;2022-09-12T00:19:27;7.48;85.23
71128;SHT30;59249;59.736;30.568;2022-09-12T00:21:56;7.42;85.72
71128;SHT30;59249;59.736;30.568;2022-09-12T00:24:25;7.43;85.94
71128;SHT30;59249;59.736;30.568;2022-09-12T00:26:55;7.39;85.39
71128;SHT30;59249;59.736;30.568;2022-09-12T00:29:23;7.31;85.22
71128;SHT30;59249;59.736;30.568;2022-09-12T00:31:52;7.38;85.54
71128;SHT30;59249;59.736;30.568;2022-09-12T00:34:21;7.28;85.36
71128;SHT30;59249;59.736;30.568;2022-09-12T00:36:50;7.33;85.24
71128;SHT30;59249;59.736;30.568;2022-09-12T00:39:19;7.30;85.56
71128;SHT30;59249;59.736;30.568;2022-09-12T00:41:47;7.19;86.64
71128;SHT30;59249;59.736;30.568;2022-09-12T00:44:45;7.19;86.30
71128;SHT30;59249;59.736;30.568;2022-09-12T00:47:27;7.26;86.17
71128;SHT30;59249;59.736;30.568;2022-09-12T00:50:06;7.21;86.41
71128;SHT30;59249;59.736;30.568;2022-09-12T00:52:40;7.19;85.89
71128;SHT30;59249;59.736;30.568;2022-09-12T00:55:15;7.13;85.57
71128;SHT30;59249;59.736;30.568;2022-09-12T00:57:50;7.10;85.93
71128;SHT30;59249;59.736;30.568;2022-09-12T01:00:24;7.14;85.90
71128;SHT30;59249;59.736;30.568;2022-09-12T01:02:59;7.10;85.97
71128;SHT30;59249;59.736;30.568;2022-09-12T01:05:32;7.11;85.87
71128;SHT30;59249;59.736;30.568;2022-09-12T01:08:03;7.02;85.69
71128;SHT30;59249;59.736;30.568;2022-09-12T01:10:35;7.05;85.58
71128;SHT30;59249;59.736;30.568;2022-09-12T01:13:08;7.01;85.64
71128;SHT30;59249;59.736;30.568;2022-09-12T01:15:39;6.96;85.62
71128;SHT30;59249;59.736;30.568;2022-09-12T01:18:19;6.99;85.52
71128;SHT30;59249;59.736;30.568;2022-09-12T01:21:04;7.00;85.57
71128;SHT30;59249;59.736;30.568;2022-09-12T01:24:11;6.93;85.57
71128;SHT30;59249;59.736;30.568;2022-09-12T01:27:29;6.98;85.65
71128;SHT30;59249;59.736;30.568;2022-09-12T01:30:37;6.91;86.39
71128;SHT30;59249;59.736;30.568;2022-09-12T01:33:37;6.86;86.35
71128;SHT30;59249;59.736;30.568;2022-09-12T01:36:31;6.87;85.83
71128;SHT30;59249;59.736;30.568;2022-09-12T01:39:04;6.90;86.74
71128;SHT30;59249;59.736;30.568;2022-09-12T01:41:47;6.96;86.18
71128;SHT30;59249;59.736;30.568;2022-09-12T01:44:30;6.87;86.09
71128;SHT30;59249;59.736;30.568;2022-09-12T01:47:07;6.86;86.04
71128;SHT30;59249;59.736;30.568;2022-09-12T01:49:46;6.92;86.54
71128;SHT30;59249;59.736;30.568;2022-09-12T01:52:25;6.91;86.63
71128;SHT30;59249;59.736;30.568;2022-09-12T01:55:04;6.91;86.05
71128;SHT30;59249;59.736;30.568;2022-09-12T01:57:42;6.95;85.88
71128;SHT30;59249;59.736;30.568;2022-09-12T02:00:13;6.87;85.95
71128;SHT30;59249;59.736;30.568;2022-09-12T02:02:50;6.88;86.02
71128;SHT30;59249;59.736;30.568;2022-09-12T02:05:29;6.84;86.33
71128;SHT30;59249;59.736;30.568;2022-09-12T02:08:05;6.65;86.33
71128;SHT30;59249;59.736;30.568;2022-09-12T02:10:42;6.71;86.17
71128;SHT30;59249;59.736;30.568;2022-09-12T02:13:18;6.65;86.18
71128;SHT30;59249;59.736;30.568;2022-09-12T02:15:55;6.60;85.98
71128;SHT30;59249;59.736;30.568;2022-09-12T02:18:30;6.49;86.19
71128;SHT30;59249;59.736;30.568;2022-09-12T02:21:03;6.50;86.13
71128;SHT30;59249;59.736;30.568;2022-09-12T02:23:37;6.50;86.23
71128;SHT30;59249;59.736;30.568;2022-09-12T02:26:14;6.43;85.94
71128;SHT30;59249;59.736;30.568;2022-09-12T02:28:46;6.45;85.93
71128;SHT30;59249;59.736;30.568;2022-09-12T02:31:23;6.34;85.96
71128;SHT30;59249;59.736;30.568;2022-09-12T02:34:09;6.37;85.86
71128;SHT30;59249;59.736;30.568;2022-09-12T02:36:48;6.37;85.80
71128;SHT30;59249;59.736;30.568;2022-09-12T02:39:20;6.28;85.82
71128;SHT30;59249;59.736;30.568;2022-09-12T02:41:50;6.17;85.71
71128;SHT30;59249;59.736;30.568;2022-09-12T02:44:21;6.13;86.30
71128;SHT30;59249;59.736;30.568;2022-09-12T02:46:55;6.06;86.11
71128;SHT30;59249;59.736;30.568;2022-09-12T02:49:27;6.02;86.03
71128;SHT30;59249;59.736;30.568;2022-09-12T02:51:55;6.05;86.29
71128;SHT30;59249;59.736;30.568;2022-09-12T02:54:25;6.00;86.55
71128;SHT30;59249;59.736;30.568;2022-09-12T02:56:54;5.89;87.04
71128;SHT30;59249;59.736;30.568;2022-09-12T02:59:24;5.93;87.30
71128;SHT30;59249;59.736;30.568;2022-09-12T03:02:14;5.99;86.80
71128;SHT30;59249;59.736;30.568;2022-09-12T03:05:15;6.02;86.52
71128;SHT30;59249;59.736;30.568;2022-09-12T03:08:11;5.97;86.42
71128;SHT30;59249;59.736;30.568;2022-09-12T03:11:03;5.98;86.63
71128;SHT30;59249;59.736;30.568;2022-09-12T03:13:47;6.02;86.57
71128;SHT30;59249;59.736;30.568;2022-09-12T03:16:26;6.13;86.51
71128;SHT30;59249;59.736;30.568;2022-09-12T03:19:05;6.10;86.38
71128;SHT30;59249;59.736;30.568;2022-09-12T03:21:50;6.01;86.70
71128;SHT30;59249;59.736;30.568;2022-09-12T03:24:26;6.08;86.44
71128;SHT30;59249;59.736;30.568;2022-09-12T03:27:07;6.13;86.80
71128;SHT30;59249;59.736;30.568;2022-09-12T03:29:39;6.09;86.81
71128;SHT30;59249;59.736;30.568;2022-09-12T03:32:08;6.15;86.61
71128;SHT30;59249;59.736;30.568;2022-09-12T03:34:37;6.14;86.41
71128;SHT30;59249;59.736;30.568;2022-09-12T03:37:07;6.19;86.42
71128;SHT30;59249;59.736;30.568;2022-09-12T03:39:36;6.21;86.29
71128;SHT30;59249;59.736;30.568;2022-09-12T03:42:05;6.30;86.23
71128;SHT30;59249;59.736;30.568;2022-09-12T03:44:34;6.29;86.35
71128;SHT30;59249;59.736;30.568;2022-09-12T03:47:03;6.28;86.35
71128;SHT30;59249;59.736;30.568;2022-09-12T03:49:37;6.45;86.47
71128;SHT30;59249;59.736;30.568;2022-09-12T03:52:07;6.43;86.41
71128;SHT30;59249;59.736;30.568;2022-09-12T03:54:36;6.53;86.24
71128;SHT30;59249;59.736;30.568;2022-09-12T03:57:05;6.49;86.52
71128;SHT30;59249;59.736;30.568;2022-09-12T03:59:34;6.57;86.46
71128;SHT30;59249;59.736;30.568;2022-09-12T04:02:04;6.61;86.28
71128;SHT30;59249;59.736;30.568;2022-09-12T04:04:33;6.69;86.25
71128;SHT30;59249;59.736;30.568;2022-09-12T04:07:01;6.68;86.13
71128;SHT30;59249;59.736;30.568;2022-09-12T04:09:31;6.80;86.12
71128;SHT30;59249;59.736;30.568;2022-09-12T04:12:01;6.78;85.77
71128;SHT30;59249;59.736;30.568;2022-09-12T04:14:29;7.01;85.70
71128;SHT30;59249;59.736;30.568;2022-09-12T04:16:58;7.09;85.73
71128;SHT30;59249;59.736;30.568;2022-09-12T04:19:27;7.22;85.65
71128;SHT30;59249;59.736;30.568;2022-09-12T04:21:57;7.22;85.57
71128;SHT30;59249;59.736;30.568;2022-09-12T04:24:25;7.33;85.42
71128;SHT30;59249;59.736;30.568;2022-09-12T04:26:56;7.39;85.48
71128;SHT30;59249;59.736;30.568;2022-09-12T04:29:25;7.51;85.36
71128;SHT30;59249;59.736;30.568;2022-09-12T04:31:54;7.54;85.29
71128;SHT30;59249;59.736;30.568;2022-09-12T04:34:22;7.63;85.14
71128;SHT30;59249;59.736;30.568;2022-09-12T04:36:51;7.70;85.02
71128;SHT30;59249;59.736;30.568;2022-09-12T04:39:20;7.82;84.99
71128;SHT30;59249;59.736;30.568;2022-09-12T04:41:49;7.89;84.97
71128;SHT30;59249;59.736;30.568;2022-09-12T04:44:19;7.94;84.85
71128;SHT30;59249;59.736;30.568;2022-09-12T04:46:48;7.99;84.47
71128;SHT30;59249;59.736;30.568;2022-09-12T04:49:17;8.09;84.12
71128;SHT30;59249;59.736;30.568;2022-09-12T04:51:46;8.24;83.87
71128;SHT30;59249;59.736;30.568;2022-09-12T04:54:18;8.33;83.96
71128;SHT30;59249;59.736;30.568;2022-09-12T04:56:49;8.39;83.76
71128;SHT30;59249;59.736;30.568;2022-09-12T04:59:22;8.50;83.61
71128;SHT30;59249;59.736;30.568;2022-09-12T05:01:51;8.59;83.47
71128;SHT30;59249;59.736;30.568;2022-09-12T05:04:20;8.67;83.33
71128;SHT30;59249;59.736;30.568;2022-09-12T05:06:49;8.75;83.05
71128;SHT30;59249;59.736;30.568;2022-09-12T05:09:17;8.82;83.15
71128;SHT30;59249;59.736;30.568;2022-09-12T05:11:46;8.89;83.09
71128;SHT30;59249;59.736;30.568;2022-09-12T05:14:33;8.98;82.90
71128;SHT30;59249;59.736;30.568;2022-09-12T05:17:04;9.10;82.80
71128;SHT30;59249;59.736;30.568;2022-09-12T05:19:33;9.19;82.83
71128;SHT30;59249;59.736;30.568;2022-09-12T05:22:03;9.22;82.30
71128;SHT30;59249;59.736;30.568;2022-09-12T05:24:35;9.34;82.28
71128;SHT30;59249;59.736;30.568;2022-09-12T05:27:14;9.40;82.02
71128;SHT30;59249;59.736;30.568;2022-09-12T05:29:45;9.52;82.21
71128;SHT30;59249;59.736;30.568;2022-09-12T05:32:14;9.63;81.70
71128;SHT30;59249;59.736;30.568;2022-09-12T05:34:42;9.70;81.70
71128;SHT30;59249;59.736;30.568;2022-09-12T05:37:11;9.82;81.34
71128;SHT30;59249;59.736;30.568;2022-09-12T05:39:40;9.93;81.32
71128;SHT30;59249;59.736;30.568;2022-09-12T05:42:08;10.00;81.27
71128;SHT30;59249;59.736;30.568;2022-09-12T05:44:38;10.09;80.99
71128;SHT30;59249;59.736;30.568;2022-09-12T05:47:10;10.13;80.74
71128;SHT30;59249;59.736;30.568;2022-09-12T05:49:39;10.25;80.81
71128;SHT30;59249;59.736;30.568;2022-09-12T05:52:09;10.32;80.53
71128;SHT30;59249;59.736;30.568;2022-09-12T05:54:38;10.40;80.45
71128;SHT30;59249;59.736;30.568;2022-09-12T05:57:07;10.47;80.38
71128;SHT30;59249;59.736;30.568;2022-09-12T05:59:36;10.50;80.14
71128;SHT30;59249;59.736;30.568;2022-09-12T06:02:05;10.59;79.96
71128;SHT30;59249;59.736;30.568;2022-09-12T06:04:35;10.67;79.97
71128;SHT30;59249;59.736;30.568;2022-09-12T06:07:04;10.74;79.76
71128;SHT30;59249;59.736;30.568;2022-09-12T06:09:33;10.77;79.71
71128;SHT30;59249;59.736;30.568;2022-09-12T06:12:02;10.85;79.18
71128;SHT30;59249;59.736;30.568;2022-09-12T06:14:31;10.96;78.89
71128;SHT30;59249;59.736;30.568;2022-09-12T06:17:00;11.06;78.86
71128;SHT30;59249;59.736;30.568;2022-09-12T06:19:29;11.22;78.56
71128;SHT30;59249;59.736;30.568;2022-09-12T06:21:59;11.27;78.63
71128;SHT30;59249;59.736;30.568;2022-09-12T06:24:28;11.36;78.63
71128;SHT30;59249;59.736;30.568;2022-09-12T06:26:57;11.48;78.31
71128;SHT30;59249;59.736;30.568;2022-09-12T06:29:26;11.61;78.08
71128;SHT30;59249;59.736;30.568;2022-09-12T06:31:54;11.64;78.08
71128;SHT30;59249;59.736;30.568;2022-09-12T06:34:23;11.69;77.97
71128;SHT30;59249;59.736;30.568;2022-09-12T06:36:53;11.78;77.76
71128;SHT30;59249;59.736;30.568;2022-09-12T06:39:23;11.85;77.78
71128;SHT30;59249;59.736;30.568;2022-09-12T06:41:52;11.92;77.63
71128;SHT30;59249;59.736;30.568;2022-09-12T06:44:33;12.01;77.54
71128;SHT30;59249;59.736;30.568;2022-09-12T06:47:06;12.04;77.31
71128;SHT30;59249;59.736;30.568;2022-09-12T06:49:35;12.09;77.17
71128;SHT30;59249;59.736;30.568;2022-09-12T06:52:04;12.12;76.95
71128;SHT30;59249;59.736;30.568;2022-09-12T06:54:34;12.13;76.48
71128;SHT30;59249;59.736;30.568;2022-09-12T06:57:03;12.22;76.06
71128;SHT30;59249;59.736;30.568;2022-09-12T06:59:32;12.24;75.70
71128;SHT30;59249;59.736;30.568;2022-09-12T07:02:01;12.34;75.63
71128;SHT30;59249;59.736;30.568;2022-09-12T07:04:30;12.35;75.58
71128;SHT30;59249;59.736;30.568;2022-09-12T07:06:59;12.37;74.83
71128;SHT30;59249;59.736;30.568;2022-09-12T07:09:28;12.40;74.54
71128;SHT30;59249;59.736;30.568;2022-09-12T07:11:58;12.45;74.80
71128;SHT30;59249;59.736;30.568;2022-09-12T07:14:30;12.48;74.61
71128;SHT30;59249;59.736;30.568;2022-09-12T07:16:59;12.55;74.66
71128;SHT30;59249;59.736;30.568;2022-09-12T07:19:28;12.56;74.21
71128;SHT30;59249;59.736;30.568;2022-09-12T07:21:56;12.61;74.49
71128;SHT30;59249;59.736;30.568;2022-09-12T07:24:25;12.66;74.15
71128;SHT30;59249;59.736;30.568;2022-09-12T07:26:54;12.74;74.11
71128;SHT30;59249;59.736;30.568;2022-09-12T07:29:24;12.69;73.56
71128;SHT30;59249;59.736;30.568;2022-09-12T07:32:08;12.77;73.32
71128;SHT30;59249;59.736;30.568;2022-09-12T07:34:38;12.85;73.45
71128;SHT30;59249;59.736;30.568;2022-09-12T07:37:07;12.92;73.48
71128;SHT30;59249;59.736;30.568;2022-09-12T07:39:38;12.99;73.12
71128;SHT30;59249;59.736;30.568;2022-09-12T07:42:07;12.95;72.68
71128;SHT30;59249;59.736;30.568;2022-09-12T07:44:41;13.05;72.63
71128;SHT30;59249;59.736;30.568;2022-09-12T07:47:10;13.10;72.49
71128;SHT30;59249;59.736;30.568;2022-09-12T07:49:39;13.12;72.06
71128;SHT30;59249;59.736;30.568;2022-09-12T07:52:08;13.20;72.01
71128;SHT30;59249;59.736;30.568;2022-09-12T07:54:37;13.21;70.81
71128;SHT30;59249;59.736;30.568;2022-09-12T07:57:06;13.32;71.75
71128;SHT30;59249;59.736;30.568;2022-09-12T07:59:46;13.39;71.17
71128;SHT30;59249;59.736;30.568;2022-09-12T08:02:19;13.41;71.10
71128;SHT30;59249;59.736;30.568;2022-09-12T08:04:51;13.53;70.61
71128;SHT30;59249;59.736;30.568;2022-09-12T08:07:21;13.55;71.03
71128;SHT30;59249;59.736;30.568;2022-09-12T08:09:50;13.64;70.97
71128;SHT30;59249;59.736;30.568;2022-09-12T08:12:20;13.69;70.39
71128;SHT30;59249;59.736;30.568;2022-09-12T08:14:50;13.74;70.55
71128;SHT30;59249;59.736;30.568;2022-09-12T08:17:19;13.73;69.76
71128;SHT30;59249;59.736;30.568;2022-09-12T08:19:48;13.79;70.09
71128;SHT30;59249;59.736;30.568;2022-09-12T08:22:19;13.85;70.17
71128;SHT30;59249;59.736;30.568;2022-09-12T08:24:48;13.87;69.41
71128;SHT30;59249;59.736;30.568;2022-09-12T08:27:17;13.90;69.48
71128;SHT30;59249;59.736;30.568;2022-09-12T08:29:46;13.97;69.86
71128;SHT30;59249;59.736;30.568;2022-09-12T08:32:16;14.10;70.00
71128;SHT30;59249;59.736;30.568;2022-09-12T08:34:49;14.10;69.94
71128;SHT30;59249;59.736;30.568;2022-09-12T08:37:18;14.20;68.93
71128;SHT30;59249;59.736;30.568;2022-09-12T08:39:51;14.22;69.32
71128;SHT30;59249;59.736;30.568;2022-09-12T08:42:51;14.34;69.53
71128;SHT30;59249;59.736;30.568;2022-09-12T08:45:31;14.34;68.71
71128;SHT30;59249;59.736;30.568;2022-09-12T08:48:09;14.46;68.91
71128;SHT30;59249;59.736;30.568;2022-09-12T08:50:40;14.50;68.64
71128;SHT30;59249;59.736;30.568;2022-09-12T08:53:20;14.55;68.90
71128;SHT30;59249;59.736;30.568;2022-09-12T08:55:55;14.65;68.67
71128;SHT30;59249;59.736;30.568;2022-09-12T08:58:28;14.65;68.24
71128;SHT30;59249;59.736;30.568;2022-09-12T09:01:06;14.72;67.79
71128;SHT30;59249;59.736;30.568;2022-09-12T09:04:12;14.72;66.79
71128;SHT30;59249;59.736;30.568;2022-09-12T09:07:14;14.76;67.19
71128;SHT30;59249;59.736;30.568;2022-09-12T09:10:07;14.62;66.24
71128;SHT30;59249;59.736;30.568;2022-09-12T09:12:50;14.69;66.32
71128;SHT30;59249;59.736;30.568;2022-09-12T09:15:38;14.71;66.45
71128;SHT30;59249;59.736;30.568;2022-09-12T09:18:14;14.81;66.98
71128;SHT30;59249;59.736;30.568;2022-09-12T09:20:51;14.88;67.47
71128;SHT30;59249;59.736;30.568;2022-09-12T09:23:27;14.98;66.70
71128;SHT30;59249;59.736;30.568;2022-09-12T09:26:04;15.00;66.06
71128;SHT30;59249;59.736;30.568;2022-09-12T09:28:40;15.06;66.14
71128;SHT30;59249;59.736;30.568;2022-09-12T09:31:14;15.02;65.78
71128;SHT30;59249;59.736;30.568;2022-09-12T09:33:48;15.17;65.70
71128;SHT30;59249;59.736;30.568;2022-09-12T09:36:22;15.17;64.68
71128;SHT30;59249;59.736;30.568;2022-09-12T09:39:04;15.27;65.11
71128;SHT30;59249;59.736;30.568;2022-09-12T09:41:53;15.33;64.07
71128;SHT30;59249;59.736;30.568;2022-09-12T09:44:27;15.36;64.74
71128;SHT30;59249;59.736;30.568;2022-09-12T09:46:58;15.36;64.54
71128;SHT30;59249;59.736;30.568;2022-09-12T09:49:33;15.45;64.88
71128;SHT30;59249;59.736;30.568;2022-09-12T09:52:06;15.53;64.16
71128;SHT30;59249;59.736;30.568;2022-09-12T09:54:41;15.53;64.46
71128;SHT30;59249;59.736;30.568;2022-09-12T09:57:40;15.61;64.67
71128;SHT30;59249;59.736;30.568;2022-09-12T10:00:26;15.70;64.45
71128;SHT30;59249;59.736;30.568;2022-09-12T10:03:24;15.65;63.73
71128;SHT30;59249;59.736;30.568;2022-09-12T10:05:59;15.70;63.67
71128;SHT30;59249;59.736;30.568;2022-09-12T10:08:32;15.63;62.66
71128;SHT30;59249;59.736;30.568;2022-09-12T10:11:06;15.71;62.74
71128;SHT30;59249;59.736;30.568;2022-09-12T10:13:39;15.77;61.24
71128;SHT30;59249;59.736;30.568;2022-09-12T10:16:19;15.70;62.90
71128;SHT30;59249;59.736;30.568;2022-09-12T10:18:51;15.85;63.24
71128;SHT30;59249;59.736;30.568;2022-09-12T10:21:33;15.93;62.44
71128;SHT30;59249;59.736;30.568;2022-09-12T10:24:21;16.02;61.30
71128;SHT30;59249;59.736;30.568;2022-09-12T10:26:56;16.09;61.72
71128;SHT30;59249;59.736;30.568;2022-09-12T10:29:30;16.19;61.50
71128;SHT30;59249;59.736;30.568;2022-09-12T10:32:02;16.30;61.20
71128;SHT30;59249;59.736;30.568;2022-09-12T10:34:36;16.41;61.04
71128;SHT30;59249;59.736;30.568;2022-09-12T10:37:09;16.50;60.64
71128;SHT30;59249;59.736;30.568;2022-09-12T10:39:50;16.49;60.33
71128;SHT30;59249;59.736;30.568;2022-09-12T10:42:45;16.74;60.42
71128;SHT30;59249;59.736;30.568;2022-09-12T10:45:22;16.83;60.67
71128;SHT30;59249;59.736;30.568;2022-09-12T10:47:53;16.89;60.49
71128;SHT30;59249;59.736;30.568;2022-09-12T10:50:26;16.84;59.39
71128;SHT30;59249;59.736;30.568;2022-09-12T10:53:17;16.73;59.14
71128;SHT30;59249;59.736;30.568;2022-09-12T10:56:06;16.83;59.01
71128;SHT30;59249;59.736;30.568;2022-09-12T10:58:54;16.99;59.04
71128;SHT30;59249;59.736;30.568;2022-09-12T11:01:38;17.02;58.71
71128;SHT30;59249;59.736;30.568;2022-09-12T11:04:25;16.98;58.83
71128;SHT30;59249;59.736;30.568;2022-09-12T11:07:25;16.99;58.79
71128;SHT30;59249;59.736;30.568;2022-09-12T11:10:05;17.04;58.80
71128;SHT30;59249;59.736;30.568;2022-09-12T11:12:50;17.16;59.05
71128;SHT30;59249;59.736;30.568;2022-09-12T11:15:45;17.09;58.22
71128;SHT30;59249;59.736;30.568;2022-09-12T11:18:35;17.00;58.18
71128;SHT30;59249;59.736;30.568;2022-09-12T11:21:21;16.77;58.11
71128;SHT30;59249;59.736;30.568;2022-09-12T11:24:22;16.81;59.04
71128;SHT30;59249;59.736;30.568;2022-09-12T11:27:11;16.84;59.46
71128;SHT30;59249;59.736;30.568;2022-09-12T11:29:57;16.91;59.11
71128;SHT30;59249;59.736;30.568;2022-09-12T11:32:56;17.14;58.83
71128;SHT30;59249;59.736;30.568;2022-09-12T11:35:30;17.33;58.11
71128;SHT30;59249;59.736;30.568;2022-09-12T11:38:34;17.51;57.84
71128;SHT30;59249;59.736;30.568;2022-09-12T11:41:08;17.67;57.79
71128;SHT30;59249;59.736;30.568;2022-09-12T11:43:45;17.97;57.45
71128;SHT30;59249;59.736;30.568;2022-09-12T11:46:24;18.21;56.72
71128;SHT30;59249;59.736;30.568;2022-09-12T11:48:59;18.42;56.32
71128;SHT30;59249;59.736;30.568;2022-09-12T11:51:36;18.41;55.97
71128;SHT30;59249;59.736;30.568;2022-09-12T11:54:19;18.22;55.91
71128;SHT30;59249;59.736;30.568;2022-09-12T11:56:59;18.33;56.18
71128;SHT30;59249;59.736;30.568;2022-09-12T11:59:42;18.59;56.32
71128;SHT30;59249;59.736;30.568;2022-09-12T12:02:24;18.78;56.08
71128;SHT30;59249;59.736;30.568;2022-09-12T12:05:04;19.05;55.25
71128;SHT30;59249;59.736;30.568;2022-09-12T12:07:42;19.15;54.40
71128;SHT30;59249;59.736;30.568;2022-09-12T12:10:34;19.31;54.29
71128;SHT30;59249;59.736;30.568;2022-09-12T12:13:13;19.05;54.99
71128;SHT30;59249;59.736;30.568;2022-09-12T12:15:47;18.95;55.92
71128;SHT30;59249;59.736;30.568;2022-09-12T12:18:23;18.79;56.13
71128;SHT30;59249;59.736;30.568;2022-09-12T12:20:54;18.77;56.06
71128;SHT30;59249;59.736;30.568;2022-09-12T12:23:26;18.86;56.22
71128;SHT30;59249;59.736;30.568;2022-09-12T12:25:59;18.94;56.05
71128;SHT30;59249;59.736;30.568;2022-09-12T12:28:59;18.90;55.77
71128;SHT30;59249;59.736;30.568;2022-09-12T12:31:28;18.94;55.96
71128;SHT30;59249;59.736;30.568;2022-09-12T12:34:20;18.85;55.25
71128;SHT30;59249;59.736;30.568;2022-09-12T12:36:50;18.65;55.43
71128;SHT30;59249;59.736;30.568;2022-09-12T12:39:55;18.42;55.84
71128;SHT30;59249;59.736;30.568;2022-09-12T12:43:04;18.37;56.92
71128;SHT30;59249;59.736;30.568;2022-09-12T12:46:06;18.49;56.46
71128;SHT30;59249;59.736;30.568;2022-09-12T12:48:53;18.52;56.93
71128;SHT30;59249;59.736;30.568;2022-09-12T12:51:54;18.54;56.15
71128;SHT30;59249;59.736;30.568;2022-09-12T12:54:55;18.62;55.71
71128;SHT30;59249;59.736;30.568;2022-09-12T12:57:45;18.66;55.90
71128;SHT30;59249;59.736;30.568;2022-09-12T13:00:32;18.79;55.60
71128;SHT30;59249;59.736;30.568;2022-09-12T13:03:24;18.83;55.75
71128;SHT30;59249;59.736;30.568;2022-09-12T13:06:00;18.85;55.79
71128;SHT30;59249;59.736;30.568;2022-09-12T13:08:34;18.93;56.07
71128;SHT30;59249;59.736;30.568;2022-09-12T13:11:09;18.92;56.10
71128;SHT30;59249;59.736;30.568;2022-09-12T13:13:50;18.87;55.23
71128;SHT30;59249;59.736;30.568;2022-09-12T13:16:33;18.93;55.45
71128;SHT30;59249;59.736;30.568;2022-09-12T13:19:06;19.00;55.46
71128;SHT30;59249;59.736;30.568;2022-09-12T13:21:36;18.89;55.93
71128;SHT30;59249;59.736;30.568;2022-09-12T13:24:15;18.87;56.00
71128;SHT30;59249;59.736;30.568;2022-09-12T13:26:47;18.79;56.37
71128;SHT30;59249;59.736;30.568;2022-09-12T13:29:18;18.82;56.14
71128;SHT30;59249;59.736;30.568;2022-09-12T13:31:52;18.82;56.09
71128;SHT30;59249;59.736;30.568;2022-09-12T13:34:25;18.75;56.07
71128;SHT30;59249;59.736;30.568;2022-09-12T13:37:39;18.77;55.83
71128;SHT30;59249;59.736;30.568;2022-09-12T13:40:35;18.76;56.43
71128;SHT30;59249;59.736;30.568;2022-09-12T13:43:13;18.81;56.25
71128;SHT30;59249;59.736;30.568;2022-09-12T13:45:45;18.82;56.40
71128;SHT30;59249;59.736;30.568;2022-09-12T13:48:19;18.74;56.64
71128;SHT30;59249;59.736;30.568;2022-09-12T13:50:53;18.69;56.94
71128;SHT30;59249;59.736;30.568;2022-09-12T13:53:27;18.61;56.47
71128;SHT30;59249;59.736;30.568;2022-09-12T13:56:00;18.42;56.26
71128;SHT30;59249;59.736;30.568;2022-09-12T13:58:32;18.37;56.86
71128;SHT30;59249;59.736;30.568;2022-09-12T14:01:06;18.37;57.07
71128;SHT30;59249;59.736;30.568;2022-09-12T14:03:40;18.41;57.57
71128;SHT30;59249;59.736;30.568;2022-09-12T14:06:27;18.26;57.52
71128;SHT30;59249;59.736;30.568;2022-09-12T14:08:56;18.14;57.67
71128;SHT30;59249;59.736;30.568;2022-09-12T14:11:31;18.09;57.80
71128;SHT30;59249;59.736;30.568;2022-09-12T14:14:05;18.07;58.33
71128;SHT30;59249;59.736;30.568;2022-09-12T14:16:43;18.11;58.86
71128;SHT30;59249;59.736;30.568;2022-09-12T14:19:12;18.00;58.71
71128;SHT30;59249;59.736;30.568;2022-09-12T14:21:42;18.00;59.17
71128;SHT30;59249;59.736;30.568;2022-09-12T14:24:12;17.96;59.34
71128;SHT30;59249;59.736;30.568;2022-09-12T14:26:43;18.00;59.16
71128;SHT30;59249;59.736;30.568;2022-09-12T14:29:15;18.02;59.06
71128;SHT30;59249;59.736;30.568;2022-09-12T14:31:45;18.00;59.34
71128;SHT30;59249;59.736;30.568;2022-09-12T14:34:15;17.98;59.31
71128;SHT30;59249;59.736;30.568;2022-09-12T14:36:47;17.91;59.65
71128;SHT30;59249;59.736;30.568;2022-09-12T14:39:23;17.86;60.04
71128;SHT30;59249;59.736;30.568;2022-09-12T14:42:04;17.75;60.59
71128;SHT30;59249;59.736;30.568;2022-09-12T14:44:34;17.81;60.36
71128;SHT30;59249;59.736;30.568;2022-09-12T14:47:13;17.83;60.59
71128;SHT30;59249;59.736;30.568;2022-09-12T14:49:42;17.82;60.48
71128;SHT30;59249;59.736;30.568;2022-09-12T14:52:24;17.76;61.00
71128;SHT30;59249;59.736;30.568;2022-09-12T14:54:57;17.68;61.24
71128;SHT30;59249;59.736;30.568;2022-09-12T14:57:37;17.68;61.49
71128;SHT30;59249;59.736;30.568;2022-09-12T15:00:20;17.70;61.33
71128;SHT30;59249;59.736;30.568;2022-09-12T15:02:51;17.68;61.03
71128;SHT30;59249;59.736;30.568;2022-09-12T15:05:25;17.63;61.08
71128;SHT30;59249;59.736;30.568;2022-09-12T15:07:58;17.61;61.32
71128;SHT30;59249;59.736;30.568;2022-09-12T15:10:30;17.51;61.14
71128;SHT30;59249;59.736;30.568;2022-09-12T15:13:21;17.47;61.18
71128;SHT30;59249;59.736;30.568;2022-09-12T15:15:54;17.30;62.17
71128;SHT30;59249;59.736;30.568;2022-09-12T15:18:25;17.28;62.09
71128;SHT30;59249;59.736;30.568;2022-09-12T15:20:59;17.20;62.83
71128;SHT30;59249;59.736;30.568;2022-09-12T15:23:36;17.20;62.76
71128;SHT30;59249;59.736;30.568;2022-09-12T15:26:09;17.22;62.75
71128;SHT30;59249;59.736;30.568;2022-09-12T15:28:40;17.11;63.13
71128;SHT30;59249;59.736;30.568;2022-09-12T15:31:17;17.02;63.35
71128;SHT30;59249;59.736;30.568;2022-09-12T15:33:49;16.92;63.85
71128;SHT30;59249;59.736;30.568;2022-09-12T15:36:20;16.82;63.67
71128;SHT30;59249;59.736;30.568;2022-09-12T15:38:51;16.73;63.66
71128;SHT30;59249;59.736;30.568;2022-09-12T15:41:23;16.63;63.38
71128;SHT30;59249;59.736;30.568;2022-09-12T15:43:55;16.47;63.69
71128;SHT30;59249;59.736;30.568;2022-09-12T15:46:24;16.41;64.06
71128;SHT30;59249;59.736;30.568;2022-09-12T15:48:53;16.38;64.29
71128;SHT30;59249;59.736;30.568;2022-09-12T15:51:22;16.35;64.41
71128;SHT30;59249;59.736;30.568;2022-09-12T15:53:51;16.28;64.59
71128;SHT30;59249;59.736;30.568;2022-09-12T15:56:21;16.23;64.82
71128;SHT30;59249;59.736;30.568;2022-09-12T15:58:50;16.26;64.54
71128;SHT30;59249;59.736;30.568;2022-09-12T16:01:28;16.25;64.82
71128;SHT30;59249;59.736;30.568;2022-09-12T16:03:57;16.36;64.88
71128;SHT30;59249;59.736;30.568;2022-09-12T16:06:25;16.51;64.39
71128;SHT30;59249;59.736;30.568;2022-09-12T16:09:02;16.56;64.49
71128;SHT30;59249;59.736;30.568;2022-09-12T16:11:32;16.54;64.30
71128;SHT30;59249;59.736;30.568;2022-09-12T16:14:00;16.42;64.39